Time;durP1;ratioP1;P1;durP2;ratioP2;P2;SDS_P1;SDS_P2;PMS_P1;PMS_P2;Temp;Humidity;BMP_temperature;BMP_pressure;BME280_temperature;BME280_humidity;BME280_pressure;Samples;Min_cycle;Max_cycle;Signal;HPM_P1;HPM_P2
2024/02/09 00:01:20;;;;;;;22.67;8.33;;;10.40;99.90;;;;;;5044119;28;20692;-62
2024/02/09 00:03:49;;;;;;;22.47;8.10;;;10.40;99.90;;;;;;5041661;28;20273;-62
2024/02/09 00:06:17;;;;;;;29.20;8.83;;;10.40;99.90;;;;;;5044502;28;20223;-62
2024/02/09 00:08:45;;;;;;;24.10;8.27;;;10.30;99.90;;;;;;5045093;28;20216;-62
2024/02/09 00:11:14;;;;;;;20.80;7.70;;;10.30;99.90;;;;;;5042846;28;20185;-62
2024/02/09 00:13:42;;;;;;;28.67;8.17;;;10.30;99.90;;;;;;5046914;28;20246;-62
2024/02/09 00:16:13;;;;;;;16.83;7.43;;;10.30;99.90;;;;;;5040787;28;20252;-62
2024/02/09 00:18:57;;;;;;;23.30;7.83;;;10.30;99.90;;;;;;5041052;28;20227;-62
2024/02/09 00:21:28;;;;;;;19.07;6.90;;;10.30;99.90;;;;;;5039180;28;20248;-62
2024/02/09 00:23:57;;;;;;;16.27;6.90;;;10.20;99.90;;;;;;5040989;28;20252;-62
2024/02/09 00:26:25;;;;;;;20.23;6.47;;;10.20;99.90;;;;;;5042056;28;20197;-62
2024/02/09 00:28:53;;;;;;;18.83;7.43;;;10.20;99.90;;;;;;5042285;28;20180;-62
2024/02/09 00:31:22;;;;;;;21.13;6.90;;;10.20;99.90;;;;;;5043148;28;20216;-62
2024/02/09 00:33:50;;;;;;;14.87;6.57;;;10.20;99.90;;;;;;5041485;28;20333;-62
2024/02/09 00:36:21;;;;;;;18.33;6.50;;;10.20;99.90;;;;;;5042501;28;20616;-62
2024/02/09 00:38:50;;;;;;;16.20;6.40;;;10.20;99.90;;;;;;5040636;28;20229;-63
2024/02/09 00:41:18;;;;;;;18.90;6.87;;;10.20;99.90;;;;;;5041469;28;20204;-62
2024/02/09 00:43:47;;;;;;;12.00;6.50;;;10.20;99.90;;;;;;5043618;28;20200;-63
2024/02/09 00:46:15;;;;;;;16.53;7.40;;;10.20;99.90;;;;;;5041847;28;20241;-63
2024/02/09 00:48:45;;;;;;;21.80;7.20;;;10.10;99.90;;;;;;5041600;28;20253;-63
2024/02/09 00:51:13;;;;;;;15.40;7.40;;;10.10;99.90;;;;;;5042205;28;20228;-63
2024/02/09 00:53:43;;;;;;;16.83;7.37;;;10.10;99.90;;;;;;5039122;28;20220;-63
2024/02/09 00:56:11;;;;;;;18.20;6.87;;;10.10;99.90;;;;;;5056730;28;20699;-59
2024/02/09 00:58:39;;;;;;;25.13;7.00;;;10.10;99.90;;;;;;5041917;28;20189;-63
2024/02/09 01:01:09;;;;;;;18.10;6.90;;;10.10;99.90;;;;;;5041362;28;20220;-63
2024/02/09 01:03:37;;;;;;;20.70;7.07;;;10.10;99.90;;;;;;5044197;28;20278;-63
2024/02/09 01:06:06;;;;;;;16.07;6.87;;;10.10;99.90;;;;;;5040614;28;20233;-63
2024/02/09 01:08:35;;;;;;;22.47;7.17;;;10.10;99.90;;;;;;5044151;28;20357;-63
2024/02/09 01:11:08;;;;;;;16.27;7.10;;;10.10;99.90;;;;;;5044886;28;20528;-63
2024/02/09 02:44:46;;;;;;;11.87;5.80;;;10.00;99.90;;;;;;5042904;28;20724;-62
2024/02/09 02:47:17;;;;;;;8.90;5.80;;;10.00;99.90;;;;;;5045597;28;20205;-62
2024/02/09 03:06:31;;;;;;;14.03;5.50;;;10.10;99.90;;;;;;5046598;28;20224;-62
2024/02/09 03:09:19;;;;;;;9.90;5.50;;;10.10;99.90;;;;;;5043666;28;20221;-62
2024/02/09 03:11:49;;;;;;;12.13;4.73;;;10.10;99.90;;;;;;5041788;28;20664;-63
2024/02/09 03:14:17;;;;;;;9.57;5.17;;;10.10;99.90;;;;;;5041873;28;20197;-62
2024/02/09 03:16:46;;;;;;;11.77;4.80;;;10.10;99.90;;;;;;5042767;28;20232;-62
2024/02/09 03:19:15;;;;;;;16.97;5.50;;;10.10;99.90;;;;;;5042027;28;20225;-63
2024/02/09 03:21:45;;;;;;;15.37;5.50;;;10.10;99.90;;;;;;5041680;28;21194;-63
2024/02/09 03:24:13;;;;;;;10.57;5.17;;;10.10;99.90;;;;;;5043194;28;20231;-62
2024/02/09 03:26:41;;;;;;;11.80;5.07;;;10.10;99.90;;;;;;5057985;28;20221;-63
2024/02/09 03:29:09;;;;;;;11.87;5.13;;;10.00;99.90;;;;;;5042987;28;20550;-63
2024/02/09 03:31:37;;;;;;;12.33;5.50;;;10.00;99.90;;;;;;5045766;28;20583;-63
2024/02/09 03:34:06;;;;;;;8.03;5.03;;;10.10;99.90;;;;;;5043882;28;20248;-63
2024/02/09 03:36:34;;;;;;;11.10;4.63;;;10.20;99.90;;;;;;5046412;28;20316;-63
2024/02/09 03:39:05;;;;;;;11.17;5.10;;;10.20;99.90;;;;;;5045568;28;20224;-63
2024/02/09 03:41:34;;;;;;;9.43;4.73;;;10.20;99.90;;;;;;5045256;28;20576;-63
2024/02/09 03:44:04;;;;;;;12.47;5.10;;;10.20;99.90;;;;;;5041477;28;20196;-63
2024/02/09 03:46:33;;;;;;;8.93;5.20;;;10.20;99.90;;;;;;5044445;28;20213;-62
2024/02/09 03:49:02;;;;;;;15.33;5.20;;;10.20;99.90;;;;;;5045179;28;20256;-63
2024/02/09 03:51:30;;;;;;;15.50;5.13;;;10.20;99.90;;;;;;5044098;28;20698;-63
2024/02/09 03:53:59;;;;;;;9.60;4.60;;;10.30;99.90;;;;;;5035852;28;20221;-63
2024/02/09 03:56:30;;;;;;;7.30;4.77;;;10.30;99.90;;;;;;5028806;28;20202;-63
2024/02/09 03:58:59;;;;;;;11.33;4.93;;;10.30;99.90;;;;;;5045990;28;20199;-63
2024/02/09 04:01:28;;;;;;;11.73;5.10;;;10.30;99.90;;;;;;5043433;28;20225;-63
2024/02/09 04:03:56;;;;;;;10.87;5.03;;;10.30;99.90;;;;;;5044383;28;20305;-63
2024/02/09 04:06:25;;;;;;;11.67;5.07;;;10.30;99.90;;;;;;5040116;28;20220;-63
2024/02/09 04:08:54;;;;;;;7.27;4.50;;;10.30;99.90;;;;;;5042044;28;20227;-63
2024/02/09 04:11:23;;;;;;;17.23;5.13;;;10.40;99.90;;;;;;5038300;28;20185;-62
2024/02/09 04:13:54;;;;;;;10.30;5.00;;;10.40;99.90;;;;;;5044383;28;20204;-63
2024/02/09 04:16:23;;;;;;;9.67;4.43;;;10.40;99.90;;;;;;5041646;28;20774;-63
2024/02/09 04:18:51;;;;;;;9.17;4.33;;;10.40;99.90;;;;;;5043777;28;20262;-63
2024/02/09 04:21:19;;;;;;;10.43;4.37;;;10.30;99.90;;;;;;5040618;28;20283;-64
2024/02/09 04:23:48;;;;;;;12.07;4.47;;;10.30;99.90;;;;;;5041073;28;20580;-63
2024/02/09 04:26:17;;;;;;;9.67;4.43;;;10.30;99.90;;;;;;5043151;28;20195;-62
2024/02/09 04:28:45;;;;;;;10.30;4.80;;;10.30;99.90;;;;;;5046391;28;20215;-63
2024/02/09 04:31:15;;;;;;;11.07;4.90;;;10.30;99.90;;;;;;5041897;28;20266;-63
2024/02/09 04:33:43;;;;;;;5.13;4.10;;;10.30;99.90;;;;;;5041505;28;20220;-63
2024/02/09 04:36:11;;;;;;;12.77;4.90;;;10.30;99.90;;;;;;5041005;28;20305;-63
2024/02/09 04:38:40;;;;;;;12.87;4.50;;;10.40;99.90;;;;;;5043353;28;20589;-63
2024/02/09 04:41:09;;;;;;;12.93;5.27;;;10.30;99.90;;;;;;5043805;28;20200;-63
2024/02/09 04:43:37;;;;;;;14.87;4.50;;;10.30;99.90;;;;;;5041374;28;20229;-63
2024/02/09 04:46:06;;;;;;;12.23;5.47;;;10.30;99.90;;;;;;5043076;28;20217;-63
2024/02/09 04:48:35;;;;;;;13.83;4.40;;;10.30;99.90;;;;;;5042188;28;20860;-63
2024/02/09 04:51:06;;;;;;;9.63;4.43;;;10.30;99.90;;;;;;5040101;28;20232;-63
2024/02/09 04:53:34;;;;;;;10.93;4.63;;;10.30;99.90;;;;;;5042038;28;20244;-63
2024/02/09 04:56:03;;;;;;;8.23;4.57;;;10.30;99.90;;;;;;5044039;28;20197;-63
2024/02/09 04:58:31;;;;;;;9.93;4.20;;;10.30;99.90;;;;;;5047209;28;20227;-63
2024/02/09 05:01:00;;;;;;;9.93;4.10;;;10.40;99.90;;;;;;5045382;28;20224;-63
2024/02/09 05:03:28;;;;;;;12.57;4.10;;;10.40;99.90;;;;;;5045573;28;20220;-63
2024/02/09 05:05:58;;;;;;;10.73;4.50;;;10.40;99.90;;;;;;5047081;28;20786;-63
2024/02/09 05:08:26;;;;;;;8.57;4.17;;;10.50;99.90;;;;;;5045510;28;20193;-63
2024/02/09 05:10:57;;;;;;;8.23;3.73;;;10.40;99.90;;;;;;5044198;28;20181;-63
2024/02/09 05:13:25;;;;;;;9.30;3.70;;;10.40;99.90;;;;;;5045026;28;20226;-63
2024/02/09 05:15:54;;;;;;;8.50;4.40;;;10.50;99.90;;;;;;5049441;28;20222;-63
2024/02/09 05:18:22;;;;;;;6.30;3.77;;;10.50;99.90;;;;;;5048498;28;20228;-63
2024/02/09 05:20:50;;;;;;;9.90;3.97;;;10.50;99.90;;;;;;5046181;28;20530;-63
2024/02/09 05:23:20;;;;;;;7.20;4.00;;;10.50;99.90;;;;;;5048471;28;20205;-63
2024/02/09 05:25:48;;;;;;;10.43;4.03;;;10.60;99.90;;;;;;5043757;28;20208;-63
2024/02/09 05:28:16;;;;;;;12.63;4.27;;;10.60;99.90;;;;;;5043900;28;20239;-63
2024/02/09 05:30:44;;;;;;;10.33;3.80;;;10.60;99.90;;;;;;5043429;28;20282;-63
2024/02/09 05:33:13;;;;;;;8.93;3.50;;;10.60;99.90;;;;;;5046850;28;20626;-63
2024/02/09 05:35:42;;;;;;;9.73;3.70;;;10.60;99.90;;;;;;5047587;28;20553;-63
2024/02/09 05:38:11;;;;;;;8.63;3.57;;;10.60;99.90;;;;;;5047165;28;20210;-63
2024/02/09 05:40:41;;;;;;;10.63;3.83;;;10.60;99.90;;;;;;5047639;28;20226;-63
2024/02/09 05:43:11;;;;;;;8.37;3.70;;;10.60;99.90;;;;;;5040375;28;20305;-63
2024/02/09 05:45:40;;;;;;;8.17;4.20;;;10.60;99.90;;;;;;5045011;28;20283;-64
2024/02/09 05:48:09;;;;;;;12.33;3.83;;;10.60;99.90;;;;;;5044673;28;20229;-63
2024/02/09 05:50:37;;;;;;;5.83;3.30;;;10.60;99.90;;;;;;5047204;28;20282;-63
2024/02/09 05:53:08;;;;;;;8.20;3.60;;;10.60;99.90;;;;;;5048347;28;20181;-63
2024/02/09 05:55:38;;;;;;;7.80;3.70;;;10.60;99.90;;;;;;5047004;28;20228;-63
2024/02/09 05:58:08;;;;;;;6.73;3.57;;;10.60;99.90;;;;;;5041875;28;20231;-63
2024/02/09 06:00:36;;;;;;;10.73;3.83;;;10.60;99.90;;;;;;5042706;28;20228;-63
2024/02/09 06:03:07;;;;;;;9.00;3.40;;;10.60;99.90;;;;;;5045992;28;20232;-63
2024/02/09 06:05:40;;;;;;;7.37;3.40;;;10.60;99.90;;;;;;5046980;28;20279;-63
2024/02/09 06:08:09;;;;;;;13.70;3.83;;;10.60;99.90;;;;;;5046061;28;20221;-62
2024/02/09 06:10:37;;;;;;;11.30;3.90;;;10.50;99.90;;;;;;5045044;28;20560;-62
2024/02/09 06:13:07;;;;;;;8.53;4.37;;;10.50;99.90;;;;;;5047553;28;20221;-63
2024/02/09 06:15:37;;;;;;;9.73;3.83;;;10.40;99.90;;;;;;5043854;28;20738;-62
2024/02/09 06:18:06;;;;;;;6.17;3.47;;;10.40;99.90;;;;;;5046028;28;20228;-61
2024/02/09 06:20:34;;;;;;;6.57;3.73;;;10.40;99.90;;;;;;5045178;28;20259;-61
2024/02/09 06:23:04;;;;;;;8.53;4.33;;;10.40;99.90;;;;;;5047590;28;20213;-61
2024/02/09 06:25:32;;;;;;;8.87;4.40;;;10.30;99.90;;;;;;5046853;28;20224;-61
2024/02/09 06:28:02;;;;;;;9.53;4.00;;;10.30;99.90;;;;;;5042204;28;20256;-61
2024/02/09 06:30:33;;;;;;;13.70;4.20;;;10.30;99.90;;;;;;5039505;28;20230;-61
2024/02/09 06:33:03;;;;;;;6.20;3.93;;;10.30;99.90;;;;;;5044632;28;20217;-62
2024/02/09 06:35:33;;;;;;;8.70;4.40;;;10.30;99.90;;;;;;5043975;28;20659;-62
2024/02/09 06:38:03;;;;;;;8.47;3.93;;;10.20;99.90;;;;;;5042205;28;20255;-62
2024/02/09 06:40:32;;;;;;;13.00;4.23;;;10.30;99.90;;;;;;5044677;28;20231;-62
2024/02/09 06:43:01;;;;;;;6.20;3.77;;;10.30;99.90;;;;;;5045270;28;20323;-62
2024/02/09 06:45:30;;;;;;;9.60;4.33;;;10.30;99.90;;;;;;5044853;28;20261;-63
2024/02/09 06:48:03;;;;;;;12.37;4.10;;;10.40;99.90;;;;;;5042069;28;20227;-63
2024/02/09 06:50:31;;;;;;;10.50;4.60;;;10.40;99.90;;;;;;5043588;28;20184;-63
2024/02/09 06:53:00;;;;;;;11.87;4.43;;;10.40;99.90;;;;;;5044029;28;20196;-61
2024/02/09 06:55:28;;;;;;;3.97;3.60;;;10.40;99.90;;;;;;5044701;28;20677;-60
2024/02/09 06:57:56;;;;;;;7.10;3.60;;;10.40;99.90;;;;;;5042740;28;20278;-60
2024/02/09 07:00:25;;;;;;;7.63;3.50;;;10.50;99.90;;;;;;5044561;28;20239;-61
2024/02/09 07:02:55;;;;;;;10.40;3.70;;;10.50;99.90;;;;;;5042403;28;20228;-61
2024/02/09 07:05:31;;;;;;;6.97;3.43;;;10.50;99.90;;;;;;5036168;28;20211;-61
2024/02/09 07:08:02;;;;;;;9.13;3.77;;;10.50;99.90;;;;;;5041730;28;20196;-61
2024/02/09 07:10:31;;;;;;;5.67;3.70;;;10.60;99.90;;;;;;5042590;28;20278;-61
2024/02/09 07:12:59;;;;;;;6.53;3.50;;;10.50;99.90;;;;;;5043790;28;20639;-61
2024/02/09 07:15:29;;;;;;;10.23;3.30;;;10.50;99.90;;;;;;5041546;28;20614;-61
2024/02/09 07:17:59;;;;;;;6.10;3.37;;;10.50;99.90;;;;;;5043043;28;20232;-61
2024/02/09 07:20:31;;;;;;;12.83;3.70;;;10.50;99.90;;;;;;5042304;28;20209;-61
2024/02/09 07:22:59;;;;;;;7.10;3.30;;;10.50;99.90;;;;;;5038427;28;20274;-61
2024/02/09 07:25:27;;;;;;;14.50;3.90;;;10.60;99.90;;;;;;5044894;28;20214;-61
2024/02/09 07:27:56;;;;;;;6.27;3.63;;;10.60;99.90;;;;;;5043958;28;20217;-62
2024/02/09 07:30:25;;;;;;;10.23;3.63;;;10.60;99.90;;;;;;5041946;28;20741;-61
2024/02/09 07:32:55;;;;;;;9.57;3.80;;;10.60;99.90;;;;;;5040527;28;20237;-61
2024/02/09 07:35:25;;;;;;;7.80;3.97;;;10.60;99.90;;;;;;5039232;28;20764;-61
2024/02/09 07:37:55;;;;;;;9.57;3.53;;;10.60;99.90;;;;;;5041224;28;20209;-62
2024/02/09 07:40:23;;;;;;;6.63;3.40;;;10.60;99.90;;;;;;5043900;28;20224;-61
2024/02/09 07:42:51;;;;;;;6.10;3.50;;;10.60;99.90;;;;;;5041931;28;20228;-61
2024/02/09 07:45:20;;;;;;;9.67;3.30;;;10.60;99.90;;;;;;5043281;28;20232;-61
2024/02/09 07:47:49;;;;;;;13.27;3.43;;;10.60;99.90;;;;;;5042155;28;20579;-62
2024/02/09 07:50:17;;;;;;;9.67;3.77;;;10.70;99.90;;;;;;5043115;28;20193;-61
2024/02/09 07:52:45;;;;;;;6.73;3.23;;;10.70;99.90;;;;;;5042437;28;20196;-61
2024/02/09 07:55:18;;;;;;;8.57;3.63;;;10.70;99.90;;;;;;5040628;28;20226;-62
2024/02/09 07:57:46;;;;;;;8.50;3.40;;;10.70;99.90;;;;;;5041210;28;20312;-62
2024/02/09 08:00:18;;;;;;;15.20;3.57;;;10.70;99.90;;;;;;5045092;28;20217;-61
2024/02/09 08:02:46;;;;;;;8.07;3.43;;;10.80;99.90;;;;;;5038623;28;20227;-62
2024/02/09 08:05:18;;;;;;;10.40;3.60;;;10.80;99.90;;;;;;5038014;28;20216;-61
2024/02/09 08:07:48;;;;;;;7.17;3.50;;;10.80;99.90;;;;;;5036472;28;20185;-62
2024/02/09 08:10:18;;;;;;;8.23;3.10;;;10.80;99.90;;;;;;5050468;28;20684;-62
2024/02/09 08:12:47;;;;;;;8.20;3.30;;;10.90;99.90;;;;;;5043137;28;20216;-62
2024/02/09 08:15:15;;;;;;;7.67;3.20;;;10.90;99.90;;;;;;5044351;28;20228;-62
2024/02/09 08:17:47;;;;;;;5.50;3.03;;;10.90;99.90;;;;;;5042815;28;20270;-62
2024/02/09 08:20:20;;;;;;;7.73;3.63;;;10.90;99.90;;;;;;5040436;28;20239;-63
2024/02/09 08:22:49;;;;;;;9.37;3.40;;;10.90;99.90;;;;;;5043755;28;20250;-62
2024/02/09 08:25:19;;;;;;;6.47;3.20;;;10.90;99.90;;;;;;5034595;28;20586;-62
2024/02/09 08:27:48;;;;;;;6.30;3.03;;;10.90;99.90;;;;;;5039918;28;20229;-62
2024/02/09 08:30:17;;;;;;;6.30;3.07;;;10.90;99.90;;;;;;5044159;28;20227;-62
2024/02/09 08:32:45;;;;;;;5.37;3.10;;;10.90;99.90;;;;;;5041832;28;20231;-63
2024/02/09 08:35:13;;;;;;;5.87;3.20;;;10.80;99.90;;;;;;5042656;28;20236;-62
2024/02/09 08:37:42;;;;;;;5.53;2.93;;;10.80;99.90;;;;;;5039173;28;20218;-63
2024/02/09 08:40:10;;;;;;;7.43;3.20;;;10.90;99.90;;;;;;5041667;28;20228;-63
2024/02/09 08:42:40;;;;;;;8.30;2.87;;;11.00;99.90;;;;;;5042541;28;20265;-62
2024/02/09 08:45:10;;;;;;;8.30;3.10;;;11.00;99.90;;;;;;5031231;28;20221;-62
2024/02/09 08:47:38;;;;;;;9.40;3.03;;;11.00;99.90;;;;;;5027684;28;20228;-63
2024/02/09 08:50:07;;;;;;;4.43;3.27;;;11.00;99.90;;;;;;5042315;28;20513;-62
2024/02/09 08:52:35;;;;;;;10.20;3.30;;;11.00;99.90;;;;;;5041884;28;20282;-62
2024/02/09 08:55:04;;;;;;;8.47;3.07;;;11.00;99.90;;;;;;5044183;28;20226;-62
2024/02/09 08:57:32;;;;;;;8.53;3.20;;;11.00;99.90;;;;;;5041249;28;20223;-62
2024/02/09 09:00:04;;;;;;;5.07;3.03;;;11.10;99.90;;;;;;5038286;28;20242;-62
2024/02/09 09:02:32;;;;;;;9.23;3.50;;;11.20;99.90;;;;;;5042578;28;20265;-63
2024/02/09 09:05:00;;;;;;;8.23;2.97;;;11.10;99.90;;;;;;5042740;28;20203;-62
2024/02/09 09:07:29;;;;;;;5.60;2.77;;;11.20;99.90;;;;;;5042027;28;20846;-63
2024/02/09 09:09:57;;;;;;;6.80;3.10;;;11.30;99.90;;;;;;5041765;28;20217;-63
2024/02/09 09:12:26;;;;;;;6.37;3.00;;;11.30;99.90;;;;;;5041451;28;20701;-62
2024/02/09 09:14:54;;;;;;;5.77;2.93;;;11.30;99.90;;;;;;5039939;28;20293;-63
2024/02/09 09:17:24;;;;;;;8.33;3.27;;;11.30;99.90;;;;;;5041937;28;20640;-62
2024/02/09 09:19:55;;;;;;;10.67;2.90;;;11.30;99.90;;;;;;5042669;28;20305;-63
2024/02/09 09:22:24;;;;;;;7.17;2.87;;;11.30;99.90;;;;;;5042494;28;20217;-63
2024/02/09 09:24:54;;;;;;;6.20;3.13;;;11.50;99.90;;;;;;5041427;28;20622;-63
2024/02/09 09:27:23;;;;;;;7.80;2.97;;;11.50;99.90;;;;;;5040305;28;20218;-63
2024/02/09 09:29:52;;;;;;;6.83;2.70;;;11.50;99.90;;;;;;5034009;28;20216;-62
2024/02/09 09:32:23;;;;;;;6.90;3.03;;;11.60;99.90;;;;;;5040950;28;20204;-62
2024/02/09 09:34:51;;;;;;;3.60;2.27;;;11.60;99.90;;;;;;5039664;28;20625;-63
2024/02/09 09:37:19;;;;;;;5.10;2.80;;;11.60;99.90;;;;;;5041850;28;20294;-63
2024/02/09 09:39:48;;;;;;;5.50;2.77;;;11.50;99.90;;;;;;5041887;28;20311;-62
2024/02/09 09:42:16;;;;;;;5.30;2.70;;;11.60;99.90;;;;;;5048359;28;20261;-62
2024/02/09 09:44:48;;;;;;;9.20;3.00;;;11.60;99.90;;;;;;5046731;28;20256;-62
2024/02/09 09:47:17;;;;;;;4.13;2.50;;;11.60;99.90;;;;;;5040597;28;20219;-61
2024/02/09 09:49:48;;;;;;;5.03;2.60;;;11.60;99.90;;;;;;5041884;28;20193;-62
2024/02/09 09:52:28;;;;;;;8.53;2.70;;;11.60;99.90;;;;;;5044537;28;20295;-63
2024/02/09 09:55:00;;;;;;;6.07;2.23;;;11.60;99.90;;;;;;5046205;28;20235;-63
2024/02/09 09:57:33;;;;;;;7.93;2.50;;;11.70;99.90;;;;;;5044144;28;20213;-63
2024/02/09 10:00:03;;;;;;;4.00;2.10;;;11.80;99.90;;;;;;5044976;28;20229;-63
2024/02/09 10:02:32;;;;;;;4.60;2.13;;;11.90;99.90;;;;;;5038185;28;22027;-63
2024/02/09 10:05:02;;;;;;;5.10;2.47;;;12.00;99.90;;;;;;5041310;28;20228;-63
2024/02/09 10:07:31;;;;;;;3.97;2.30;;;12.10;99.90;;;;;;5041827;28;20726;-62
2024/02/09 10:10:01;;;;;;;8.90;2.30;;;12.10;99.90;;;;;;5042733;28;20228;-62
2024/02/09 10:12:32;;;;;;;8.43;2.40;;;12.20;99.90;;;;;;5044244;28;20229;-63
2024/02/09 10:15:00;;;;;;;3.80;2.30;;;12.20;99.90;;;;;;5044456;28;20217;-63
2024/02/09 10:17:29;;;;;;;3.67;2.80;;;12.30;99.90;;;;;;5047566;28;20201;-63
2024/02/09 10:19:57;;;;;;;5.53;2.53;;;12.30;99.90;;;;;;5043561;28;20220;-63
2024/02/09 10:22:27;;;;;;;5.33;2.20;;;12.40;99.90;;;;;;5048298;28;20220;-62
2024/02/09 10:24:55;;;;;;;4.03;2.10;;;12.50;99.90;;;;;;5039910;28;20221;-62
2024/02/09 10:27:24;;;;;;;4.93;2.20;;;12.60;99.90;;;;;;5047560;28;20323;-62
2024/02/09 10:29:52;;;;;;;4.63;2.17;;;12.60;99.90;;;;;;5044353;28;20221;-63
2024/02/09 10:32:20;;;;;;;11.17;2.67;;;12.70;99.90;;;;;;5045211;28;20559;-63
2024/02/09 10:34:51;;;;;;;6.53;2.10;;;12.80;99.90;;;;;;5040139;28;20243;-63
2024/02/09 10:37:20;;;;;;;3.07;2.07;;;12.70;99.90;;;;;;5040562;28;20221;-63
2024/02/09 10:40:00;;;;;;;4.80;2.03;;;12.70;99.90;;;;;;5044104;28;21777;-63
2024/02/09 10:42:30;;;;;;;8.37;2.30;;;12.60;99.90;;;;;;5044434;28;20224;-63
2024/02/09 10:44:59;;;;;;;6.73;2.27;;;12.60;99.90;;;;;;5048472;28;20228;-63
2024/02/09 10:47:41;;;;;;;3.70;2.57;;;12.60;99.90;;;;;;5045453;28;20274;-63
2024/02/09 10:50:12;;;;;;;5.10;2.50;;;12.50;99.90;;;;;;5044676;28;20195;-62
2024/02/09 10:52:44;;;;;;;6.60;2.60;;;12.50;99.90;;;;;;5043147;28;20610;-63
2024/02/09 10:55:20;;;;;;;6.87;2.10;;;12.50;99.90;;;;;;5044959;28;20217;-63
2024/02/09 10:57:50;;;;;;;5.40;2.37;;;12.50;99.90;;;;;;5040171;28;20224;-62
2024/02/09 11:00:19;;;;;;;3.70;2.23;;;12.60;99.90;;;;;;5045125;28;20225;-63
2024/02/09 11:02:47;;;;;;;6.73;2.10;;;12.70;99.90;;;;;;5041639;28;20549;-62
2024/02/09 11:05:16;;;;;;;2.97;2.03;;;12.80;99.90;;;;;;5037660;28;20602;-63
2024/02/09 11:07:47;;;;;;;2.83;2.20;;;13.10;99.90;;;;;;5040691;28;20198;-63
2024/02/09 11:10:18;;;;;;;7.50;2.00;;;13.30;99.90;;;;;;5037124;28;21094;-63
2024/02/09 11:12:57;;;;;;;5.93;2.33;;;13.60;99.90;;;;;;5040013;28;20303;-63
2024/02/09 11:15:31;;;;;;;6.77;2.13;;;13.80;99.90;;;;;;5041213;28;21541;-63
2024/02/09 11:17:59;;;;;;;5.20;2.20;;;13.90;99.90;;;;;;5043355;28;20680;-63
2024/02/09 11:20:27;;;;;;;4.10;2.27;;;14.10;99.90;;;;;;5043756;28;20230;-63
2024/02/09 11:23:00;;;;;;;5.83;2.03;;;14.20;99.90;;;;;;5045325;28;20301;-62
2024/02/09 11:25:34;;;;;;;8.77;2.30;;;14.00;99.90;;;;;;5041309;28;20221;-62
2024/02/09 11:28:07;;;;;;;7.57;2.13;;;14.00;99.90;;;;;;5043991;28;20227;-62
2024/02/09 11:30:38;;;;;;;6.07;2.23;;;13.90;99.90;;;;;;5040128;28;20240;-63
2024/02/09 11:33:09;;;;;;;3.27;1.70;;;13.90;99.90;;;;;;5048311;28;20248;-63
2024/02/09 11:35:37;;;;;;;5.33;1.90;;;13.80;99.90;;;;;;5046148;28;20311;-62
2024/02/09 11:38:05;;;;;;;8.10;1.90;;;13.80;99.90;;;;;;5040137;28;20193;-63
2024/02/09 11:40:36;;;;;;;3.70;1.70;;;13.80;99.90;;;;;;5042634;28;20234;-63
2024/02/09 11:43:05;;;;;;;6.00;1.87;;;13.70;99.90;;;;;;5044400;28;20220;-63
2024/02/09 11:45:36;;;;;;;5.30;1.60;;;13.60;99.90;;;;;;5041836;28;20584;-63
2024/02/09 11:48:06;;;;;;;6.87;2.30;;;13.60;99.90;;;;;;5044361;28;20627;-62
2024/02/09 11:50:36;;;;;;;2.87;1.50;;;13.60;99.90;;;;;;5045911;28;20221;-63
2024/02/09 11:53:05;;;;;;;4.97;1.80;;;13.80;99.90;;;;;;5044575;28;20221;-62
2024/02/09 11:55:43;;;;;;;4.10;1.70;;;13.90;99.90;;;;;;5042103;28;20232;-62
2024/02/09 11:58:13;;;;;;;6.67;2.10;;;14.00;99.90;;;;;;5038094;28;20274;-62
2024/02/09 12:00:43;;;;;;;8.17;2.00;;;14.00;99.90;;;;;;5040230;28;20305;-62
2024/02/09 12:03:13;;;;;;;6.07;2.10;;;14.00;99.90;;;;;;5039995;28;20220;-62
2024/02/09 12:05:47;;;;;;;8.00;1.97;;;14.10;99.90;;;;;;5041655;28;20624;-62
2024/02/09 12:08:18;;;;;;;6.73;2.13;;;14.00;99.90;;;;;;5043611;28;20235;-63
2024/02/09 12:10:51;;;;;;;4.40;1.80;;;14.00;99.90;;;;;;5037561;28;20233;-62
2024/02/09 12:13:20;;;;;;;8.63;2.60;;;14.30;99.90;;;;;;5037990;28;20288;-62
2024/02/09 12:15:49;;;;;;;4.80;1.87;;;14.40;99.90;;;;;;5041918;28;20259;-62
2024/02/09 12:18:17;;;;;;;3.37;1.77;;;14.50;99.90;;;;;;5042421;28;20624;-63
2024/02/09 12:20:46;;;;;;;5.23;2.10;;;14.40;99.90;;;;;;5044057;28;20613;-62
2024/02/09 12:23:14;;;;;;;7.77;2.33;;;14.30;99.90;;;;;;5040407;28;20199;-62
2024/02/09 12:25:42;;;;;;;4.33;1.83;;;14.20;99.90;;;;;;5044215;28;20197;-62
2024/02/09 12:28:20;;;;;;;9.20;2.00;;;14.10;99.90;;;;;;5043112;28;22206;-62
2024/02/09 12:30:48;;;;;;;6.73;2.10;;;14.20;99.90;;;;;;5043416;28;20223;-63
2024/02/09 12:33:19;;;;;;;6.37;1.90;;;14.10;99.90;;;;;;5038743;28;20217;-63
2024/02/09 12:35:54;;;;;;;3.83;1.97;;;14.20;99.90;;;;;;5045049;28;20228;-62
2024/02/09 12:38:22;;;;;;;6.33;2.10;;;14.20;99.90;;;;;;5040760;28;20259;-62
2024/02/09 12:40:56;;;;;;;6.93;2.13;;;14.20;99.90;;;;;;5043426;28;20304;-62
2024/02/09 12:43:29;;;;;;;6.67;1.90;;;14.10;99.90;;;;;;5042991;28;20317;-62
2024/02/09 12:45:58;;;;;;;6.17;2.13;;;14.10;99.90;;;;;;5046112;28;20241;-62
2024/02/09 12:48:28;;;;;;;3.07;2.20;;;14.00;99.90;;;;;;5040204;28;20226;-62
2024/02/09 12:50:57;;;;;;;4.50;1.97;;;13.90;99.90;;;;;;5037776;28;20217;-62
2024/02/09 12:53:26;;;;;;;7.90;2.33;;;13.80;99.90;;;;;;5041682;28;20754;-62
2024/02/09 12:55:55;;;;;;;6.57;1.90;;;13.70;99.90;;;;;;5040071;28;20208;-63
2024/02/09 12:58:25;;;;;;;7.73;2.00;;;13.70;99.90;;;;;;5039388;28;20224;-63
2024/02/09 13:00:53;;;;;;;3.80;1.77;;;13.70;99.90;;;;;;5040993;28;20249;-63
2024/02/09 13:03:22;;;;;;;3.87;1.73;;;13.60;99.90;;;;;;5041159;28;20216;-62
2024/02/09 13:05:50;;;;;;;5.47;2.00;;;13.60;99.90;;;;;;5043943;28;20320;-62
2024/02/09 13:08:21;;;;;;;3.97;1.60;;;13.60;99.90;;;;;;5042351;28;20201;-62
2024/02/09 13:10:50;;;;;;;6.20;2.07;;;13.70;99.90;;;;;;5043563;28;20197;-62
2024/02/09 13:13:19;;;;;;;7.13;1.90;;;13.80;99.90;;;;;;5042530;28;20216;-62
2024/02/09 13:15:49;;;;;;;4.30;1.60;;;13.90;99.90;;;;;;5046869;28;20545;-63
2024/02/09 13:18:17;;;;;;;4.00;1.70;;;13.90;99.90;;;;;;5046317;28;20658;-62
2024/02/09 13:20:46;;;;;;;4.73;1.60;;;14.00;99.90;;;;;;5040579;28;20229;-62
2024/02/09 13:23:13;;;;;;;3.63;1.70;;;14.00;99.90;;;;;;5043846;28;20198;-62
2024/02/09 13:25:42;;;;;;;5.60;1.50;;;14.00;99.90;;;;;;5045565;28;20192;-63
2024/02/09 13:28:12;;;;;;;4.13;1.67;;;14.00;99.90;;;;;;5047560;28;20236;-62
2024/02/09 13:30:40;;;;;;;2.83;1.40;;;14.10;99.90;;;;;;5048692;28;20239;-62
2024/02/09 13:33:10;;;;;;;6.07;1.53;;;14.20;99.90;;;;;;5044796;28;20224;-63
2024/02/09 13:35:40;;;;;;;3.63;2.17;;;14.10;99.90;;;;;;5046601;28;20229;-62
2024/02/09 13:38:08;;;;;;;8.17;2.60;;;14.30;99.90;;;;;;5042634;28;20201;-63
2024/02/09 13:40:37;;;;;;;5.73;2.90;;;14.30;99.90;;;;;;5040069;28;20225;-62
2024/02/09 13:43:09;;;;;;;4.37;1.90;;;14.30;99.90;;;;;;5042762;28;20220;-63
2024/02/09 13:45:39;;;;;;;3.27;1.90;;;14.50;99.90;;;;;;5038290;28;20229;-63
2024/02/09 13:48:09;;;;;;;4.27;1.90;;;14.60;99.90;;;;;;5043465;28;20595;-63
2024/02/09 13:50:40;;;;;;;3.23;1.30;;;14.60;99.90;;;;;;5046481;28;20218;-63
2024/02/09 13:53:08;;;;;;;4.43;1.90;;;14.50;99.90;;;;;;5042188;28;20205;-62
2024/02/09 13:55:38;;;;;;;5.60;1.67;;;14.50;99.90;;;;;;5045317;28;20235;-62
2024/02/09 13:58:09;;;;;;;2.87;1.60;;;14.40;99.90;;;;;;5047370;28;20216;-63
2024/02/09 14:00:42;;;;;;;5.93;1.77;;;14.40;99.90;;;;;;5045861;28;20226;-63
2024/02/09 14:03:10;;;;;;;6.37;1.90;;;14.40;99.90;;;;;;5045366;28;20222;-62
2024/02/09 14:05:40;;;;;;;4.83;2.00;;;14.50;99.90;;;;;;5045135;28;20228;-62
2024/02/09 14:08:09;;;;;;;3.57;1.53;;;14.50;99.90;;;;;;5044479;28;20864;-62
2024/02/09 14:10:40;;;;;;;3.63;1.73;;;14.40;99.90;;;;;;5043187;28;20221;-62
2024/02/09 14:13:08;;;;;;;7.50;2.10;;;14.30;99.90;;;;;;5042380;28;20235;-63
2024/02/09 14:15:36;;;;;;;5.03;1.77;;;14.20;99.90;;;;;;5043464;28;20235;-62
2024/02/09 14:18:05;;;;;;;3.57;1.70;;;14.00;99.90;;;;;;5045662;28;20604;-63
2024/02/09 14:20:33;;;;;;;2.20;1.60;;;14.00;99.90;;;;;;5045622;28;20232;-63
2024/02/09 14:23:03;;;;;;;3.60;1.70;;;14.10;99.90;;;;;;5042824;28;20647;-62
2024/02/09 14:25:32;;;;;;;3.47;1.53;;;14.20;99.90;;;;;;5037409;28;20225;-62
2024/02/09 14:28:01;;;;;;;4.30;1.90;;;14.20;99.90;;;;;;5044707;28;20224;-63
2024/02/09 14:30:29;;;;;;;4.33;1.90;;;14.20;99.90;;;;;;5043971;28;20240;-62
2024/02/09 14:32:57;;;;;;;2.90;1.47;;;14.10;99.90;;;;;;5045648;28;20301;-63
2024/02/09 14:35:25;;;;;;;2.50;1.60;;;14.10;99.90;;;;;;5044488;28;20345;-62
2024/02/09 14:37:54;;;;;;;6.27;2.13;;;14.10;99.90;;;;;;5043652;28;20194;-63
2024/02/09 14:40:24;;;;;;;2.23;1.40;;;14.10;99.90;;;;;;5040671;28;20307;-62
2024/02/09 14:42:54;;;;;;;6.13;1.70;;;14.00;99.90;;;;;;5042469;28;20315;-62